Time;durP1;ratioP1;P1;durP2;ratioP2;P2;SDS_P1;SDS_P2;PMS_P1;PMS_P2;Temp;Humidity;BMP_temperature;BMP_pressure;BME280_temperature;BME280_humidity;BME280_pressure;Samples;Min_cycle;Max_cycle;Signal;HPM_P1;HPM_P2
2021/06/25 00:01:36;;;;;;;;;;;16.60;99.90;;;;;;6166419;23;20412;-79
2021/06/25 00:04:01;;;;;;;;;;;16.60;99.90;;;;;;6166881;23;19977;-79
2021/06/25 00:06:27;;;;;;;;;;;16.60;99.90;;;;;;6165700;23;19993;-79
2021/06/25 00:08:52;;;;;;;;;;;16.60;99.90;;;;;;6165699;23;19977;-79
2021/06/25 00:11:18;;;;;;;;;;;16.50;99.90;;;;;;6192105;23;19984;-80
2021/06/25 00:13:43;;;;;;;;;;;16.50;99.90;;;;;;6191611;23;20000;-79
2021/06/25 00:16:09;;;;;;;;;;;16.40;99.90;;;;;;6166614;23;19993;-79
2021/06/25 00:18:34;;;;;;;;;;;16.40;99.90;;;;;;6166867;23;20000;-80
2021/06/25 00:20:59;;;;;;;;;;;16.40;99.90;;;;;;6196978;23;19993;-79
2021/06/25 00:23:25;;;;;;;;;;;16.40;99.90;;;;;;6171974;23;19985;-80
2021/06/25 00:25:50;;;;;;;;;;;16.40;99.90;;;;;;6171931;23;19999;-80
2021/06/25 00:28:16;;;;;;;;;;;16.40;99.90;;;;;;6169928;23;20003;-80
2021/06/25 00:30:42;;;;;;;;;;;16.40;99.90;;;;;;6167360;23;20033;-79
2021/06/25 00:33:08;;;;;;;;;;;16.30;99.90;;;;;;6168726;23;19981;-79
2021/06/25 00:35:34;;;;;;;;;;;16.30;99.90;;;;;;6170266;23;20084;-81
2021/06/25 00:38:03;;;;;;;;;;;16.30;99.90;;;;;;6169262;23;20368;-79
2021/06/25 00:40:29;;;;;;;;;;;16.30;99.90;;;;;;6171097;23;20004;-80
2021/06/25 00:42:54;;;;;;;;;;;16.30;99.90;;;;;;6170203;23;20282;-79
2021/06/25 00:45:20;;;;;;;;;;;16.30;99.90;;;;;;6169197;23;20416;-80
2021/06/25 00:47:49;;;;;;;;;;;16.30;99.90;;;;;;6193373;23;19973;-79
2021/06/25 00:50:17;;;;;;;;;;;16.30;99.90;;;;;;6194707;23;19974;-79
2021/06/25 00:52:43;;;;;;;;;;;16.30;99.90;;;;;;6167702;23;20055;-80
2021/06/25 00:55:10;;;;;;;;;;;16.30;99.90;;;;;;6194081;23;20424;-79
2021/06/25 00:57:35;;;;;;;;;;;16.30;99.90;;;;;;6166959;23;19984;-78
2021/06/25 01:00:03;;;;;;;;;;;16.30;99.90;;;;;;6194634;23;19993;-79
2021/06/25 01:02:28;;;;;;;;;;;16.20;99.90;;;;;;6194530;23;20080;-79
2021/06/25 01:04:54;;;;;;;;;;;16.20;99.90;;;;;;6166481;23;19981;-79
2021/06/25 01:07:19;;;;;;;;;;;16.10;99.90;;;;;;6190627;23;20027;-79
2021/06/25 01:09:45;;;;;;;;;;;16.10;99.90;;;;;;6194880;23;19993;-80
2021/06/25 01:12:11;;;;;;;;;;;16.10;99.90;;;;;;6168984;23;19985;-80
2021/06/25 01:14:38;;;;;;;;;;;16.00;99.90;;;;;;6168312;23;20431;-81
2021/06/25 01:17:06;;;;;;;;;;;16.00;99.90;;;;;;6170896;23;20068;-79
2021/06/25 01:19:31;;;;;;;;;;;16.00;99.90;;;;;;6196379;23;20085;-78
2021/06/25 01:21:57;;;;;;;;;;;16.00;99.90;;;;;;6169398;23;19977;-80
2021/06/25 01:24:22;;;;;;;;;;;15.90;99.90;;;;;;6171498;23;20014;-80
2021/06/25 01:26:48;;;;;;;;;;;15.90;99.90;;;;;;6172351;23;19997;-80
2021/06/25 01:29:13;;;;;;;;;;;15.90;99.90;;;;;;6171836;23;19977;-80
2021/06/25 01:31:39;;;;;;;;;;;15.80;99.90;;;;;;6198844;23;19973;-80
2021/06/25 01:34:05;;;;;;;;;;;15.80;99.90;;;;;;6197714;23;19973;-80
2021/06/25 01:36:31;;;;;;;;;;;15.80;99.90;;;;;;6198418;23;20018;-80
2021/06/25 01:38:58;;;;;;;;;;;15.80;99.90;;;;;;6170082;23;19997;-79
2021/06/25 01:41:24;;;;;;;;;;;15.80;99.90;;;;;;6170240;23;20040;-80
2021/06/25 01:43:50;;;;;;;;;;;15.70;99.90;;;;;;6197622;23;19980;-80
2021/06/25 01:46:16;;;;;;;;;;;15.70;99.90;;;;;;6198038;23;20007;-80
2021/06/25 01:48:41;;;;;;;;;;;15.70;99.90;;;;;;6171478;23;20384;-80
2021/06/25 01:51:07;;;;;;;;;;;15.70;99.90;;;;;;6171873;23;19981;-79
2021/06/25 01:53:32;;;;;;;;;;;15.70;99.90;;;;;;6171567;23;19977;-80
2021/06/25 01:56:01;;;;;;;;;;;15.70;99.90;;;;;;6171043;23;20003;-80
2021/06/25 01:58:28;;;;;;;;;;;15.70;99.90;;;;;;6172034;23;20410;-80
2021/06/25 02:00:53;;;;;;;;;;;15.70;99.90;;;;;;6172037;23;19997;-80
2021/06/25 02:03:19;;;;;;;;;;;15.70;99.90;;;;;;6196933;23;20353;-79
2021/06/25 02:05:44;;;;;;;;;;;15.70;99.90;;;;;;6196961;23;19996;-79
2021/06/25 02:08:10;;;;;;;;;;;15.70;99.90;;;;;;6197417;23;20011;-80
2021/06/25 02:10:35;;;;;;;;;;;15.70;99.90;;;;;;6172355;23;19977;-80
2021/06/25 02:13:01;;;;;;;;;;;15.70;99.90;;;;;;6199237;23;19974;-80
2021/06/25 02:15:26;;;;;;;;;;;15.60;99.90;;;;;;6198822;23;20376;-80
2021/06/25 02:17:52;;;;;;;;;;;15.70;99.90;;;;;;6198977;23;19973;-80
2021/06/25 02:20:17;;;;;;;;;;;15.70;99.90;;;;;;6170973;23;20005;-80
2021/06/25 02:22:43;;;;;;;;;;;15.60;99.90;;;;;;6170842;23;19977;-80
2021/06/25 02:25:09;;;;;;;;;;;15.60;99.90;;;;;;6171479;23;20444;-80
2021/06/25 02:27:35;;;;;;;;;;;15.60;99.90;;;;;;6170429;23;19981;-81
2021/06/25 02:30:01;;;;;;;;;;;15.70;99.90;;;;;;6171352;23;19978;-80
2021/06/25 02:32:27;;;;;;;;;;;15.60;99.90;;;;;;6170844;23;20021;-80
2021/06/25 02:34:52;;;;;;;;;;;15.60;99.90;;;;;;6169170;23;19977;-80
2021/06/25 02:37:18;;;;;;;;;;;15.70;99.90;;;;;;6194513;23;19994;-80
2021/06/25 02:39:43;;;;;;;;;;;15.70;99.90;;;;;;6167829;23;20308;-80
2021/06/25 02:42:09;;;;;;;;;;;15.70;99.90;;;;;;6167911;23;20031;-81
2021/06/25 02:44:34;;;;;;;;;;;15.70;99.90;;;;;;6165758;23;19978;-80
2021/06/25 02:46:59;;;;;;;;;;;15.70;99.90;;;;;;6166993;23;20005;-80
2021/06/25 02:49:25;;;;;;;;;;;15.70;99.90;;;;;;6196214;23;19977;-80
2021/06/25 02:51:51;;;;;;;;;;;15.70;99.90;;;;;;6170302;23;19984;-80
2021/06/25 02:54:16;;;;;;;;;;;15.70;99.90;;;;;;6196956;23;19980;-80
2021/06/25 02:56:42;;;;;;;;;;;15.70;99.90;;;;;;6171886;23;20000;-80
2021/06/25 02:59:07;;;;;;;;;;;15.70;99.90;;;;;;6170710;23;20420;-81
2021/06/25 03:01:33;;;;;;;;;;;15.70;99.90;;;;;;6195549;23;20105;-79
2021/06/25 03:03:58;;;;;;;;;;;15.70;99.90;;;;;;6193304;23;19980;-81
2021/06/25 03:06:24;;;;;;;;;;;15.70;99.90;;;;;;6167596;23;20093;-80
2021/06/25 03:08:49;;;;;;;;;;;15.70;99.90;;;;;;6195398;23;20028;-81
2021/06/25 03:11:15;;;;;;;;;;;15.80;99.90;;;;;;6164459;23;19977;-80
2021/06/25 03:13:40;;;;;;;;;;;15.70;99.90;;;;;;6164456;23;19977;-80
2021/06/25 03:16:06;;;;;;;;;;;15.70;99.90;;;;;;6163755;23;20302;-80
2021/06/25 03:18:31;;;;;;;;;;;15.60;99.90;;;;;;6163663;23;19977;-80
2021/06/25 03:20:57;;;;;;;;;;;15.60;99.90;;;;;;6162870;23;20424;-80
2021/06/25 03:23:23;;;;;;;;;;;15.60;99.90;;;;;;6162664;23;20060;-80
2021/06/25 03:25:48;;;;;;;;;;;15.60;99.90;;;;;;6189307;23;19993;-81
2021/06/25 03:28:14;;;;;;;;;;;15.60;99.90;;;;;;6191304;23;19973;-80
2021/06/25 03:30:39;;;;;;;;;;;15.60;99.90;;;;;;6174913;23;19978;-80
2021/06/25 03:33:05;;;;;;;;;;;15.60;99.90;;;;;;6174718;23;19978;-80
2021/06/25 03:35:31;;;;;;;;;;;15.60;99.90;;;;;;6200447;23;19996;-80
2021/06/25 03:37:56;;;;;;;;;;;15.60;99.90;;;;;;6166188;23;19981;-80
2021/06/25 03:40:23;;;;;;;;;;;15.70;99.90;;;;;;6189090;23;19993;-80
2021/06/25 03:42:49;;;;;;;;;;;15.70;99.90;;;;;;6188497;23;19996;-80
2021/06/25 03:45:15;;;;;;;;;;;15.60;99.90;;;;;;6186848;23;20001;-73
2021/06/25 03:47:40;;;;;;;;;;;15.60;99.90;;;;;;6182647;23;19982;-72
2021/06/25 03:50:07;;;;;;;;;;;15.60;99.90;;;;;;6182341;23;19977;-72
2021/06/25 03:52:32;;;;;;;;;;;15.60;99.90;;;;;;6155880;23;20051;-72
2021/06/25 03:54:58;;;;;;;;;;;15.60;99.90;;;;;;6155828;23;20004;-72
2021/06/25 03:57:23;;;;;;;;;;;15.60;99.90;;;;;;6182099;23;19989;-73
2021/06/25 03:59:49;;;;;;;;;;;15.60;99.90;;;;;;6155731;23;20079;-72
2021/06/25 04:02:14;;;;;;;;;;;15.60;99.90;;;;;;6182137;23;19973;-72
2021/06/25 04:04:40;;;;;;;;;;;15.60;99.90;;;;;;6182184;23;19974;-72
2021/06/25 04:07:06;;;;;;;;;;;15.60;99.90;;;;;;6155250;23;20017;-73
2021/06/25 04:09:32;;;;;;;;;;;15.60;99.90;;;;;;6182071;23;20295;-71
2021/06/25 04:11:57;;;;;;;;;;;15.60;99.90;;;;;;6155719;23;19981;-71
2021/06/25 04:14:23;;;;;;;;;;;15.60;99.90;;;;;;6182086;23;20000;-72
2021/06/25 04:16:48;;;;;;;;;;;15.60;99.90;;;;;;6182075;23;20328;-72
2021/06/25 04:19:14;;;;;;;;;;;15.60;99.90;;;;;;6181993;23;20031;-72
2021/06/25 04:21:39;;;;;;;;;;;15.60;99.90;;;;;;6182049;23;20001;-72
2021/06/25 04:24:05;;;;;;;;;;;15.60;99.90;;;;;;6182296;23;19977;-72
2021/06/25 04:26:31;;;;;;;;;;;15.60;99.90;;;;;;6182212;23;20060;-72
2021/06/25 04:28:56;;;;;;;;;;;15.60;99.90;;;;;;6182014;23;19995;-72
2021/06/25 04:31:22;;;;;;;;;;;15.60;99.90;;;;;;6181868;23;19977;-71
2021/06/25 04:33:47;;;;;;;;;;;15.60;99.90;;;;;;6181870;23;19999;-72
2021/06/25 04:36:13;;;;;;;;;;;15.60;99.90;;;;;;6181754;23;20001;-72
2021/06/25 04:38:38;;;;;;;;;;;15.70;99.90;;;;;;6182043;23;19977;-72
2021/06/25 04:41:03;;;;;;;;;;;15.60;99.90;;;;;;6155354;23;20007;-72
2021/06/25 04:43:29;;;;;;;;;;;15.70;99.90;;;;;;6182094;23;20303;-71
2021/06/25 04:45:55;;;;;;;;;;;15.70;99.90;;;;;;6155255;23;20009;-72
2021/06/25 04:48:21;;;;;;;;;;;15.60;99.90;;;;;;6181798;23;20369;-72
2021/06/25 04:50:46;;;;;;;;;;;15.70;99.90;;;;;;6181804;23;20040;-72
2021/06/25 04:53:12;;;;;;;;;;;15.70;99.90;;;;;;6182090;23;19985;-71
2021/06/25 04:55:41;;;;;;;;;;;15.80;99.90;;;;;;6181959;23;20067;-72
2021/06/25 04:58:07;;;;;;;;;;;15.80;99.90;;;;;;6182200;23;20298;-71
2021/06/25 05:00:33;;;;;;;;;;;15.80;99.90;;;;;;6155169;23;20001;-71
2021/06/25 05:02:58;;;;;;;;;;;15.80;99.90;;;;;;6155277;23;19982;-71
2021/06/25 05:05:24;;;;;;;;;;;15.90;99.90;;;;;;6181578;23;19997;-72
2021/06/25 05:07:49;;;;;;;;;;;15.90;99.90;;;;;;6181558;23;19977;-71
2021/06/25 05:10:15;;;;;;;;;;;16.00;99.90;;;;;;6181526;23;20401;-72
2021/06/25 05:12:40;;;;;;;;;;;16.00;99.90;;;;;;6181562;23;20056;-72
2021/06/25 05:15:07;;;;;;;;;;;16.10;99.90;;;;;;6155017;23;20063;-71
2021/06/25 05:17:32;;;;;;;;;;;16.10;99.90;;;;;;6181695;23;20028;-72
2021/06/25 05:19:58;;;;;;;;;;;16.20;99.90;;;;;;6181174;23;20000;-72
2021/06/25 05:22:24;;;;;;;;;;;16.20;99.90;;;;;;6155086;23;20027;-71
2021/06/25 05:24:50;;;;;;;;;;;16.30;99.90;;;;;;6155232;23;19988;-71
2021/06/25 05:27:15;;;;;;;;;;;16.40;99.90;;;;;;6181439;23;19993;-73
2021/06/25 05:29:41;;;;;;;;;;;16.40;99.90;;;;;;6181633;23;20111;-72
2021/06/25 05:32:06;;;;;;;;;;;16.50;99.90;;;;;;6155130;23;19985;-71
2021/06/25 05:34:32;;;;;;;;;;;16.50;99.90;;;;;;6155073;23;20429;-72
2021/06/25 05:36:57;;;;;;;;;;;16.50;99.90;;;;;;6154931;23;19997;-72
2021/06/25 05:39:23;;;;;;;;;;;16.40;99.90;;;;;;6155372;23;20051;-71
2021/06/25 05:41:48;;;;;;;;;;;16.40;99.90;;;;;;6181174;23;20079;-71
2021/06/25 05:44:14;;;;;;;;;;;16.40;99.90;;;;;;6181319;23;19977;-71
2021/06/25 05:46:40;;;;;;;;;;;16.40;99.90;;;;;;6154781;23;20440;-72
2021/06/25 05:49:06;;;;;;;;;;;16.50;99.90;;;;;;6154972;23;20328;-71
2021/06/25 05:51:31;;;;;;;;;;;16.50;99.90;;;;;;6154941;23;19991;-71
2021/06/25 05:53:57;;;;;;;;;;;16.60;99.90;;;;;;6181722;23;20084;-71
2021/06/25 05:56:22;;;;;;;;;;;16.70;99.90;;;;;;6154877;23;19993;-72
2021/06/25 05:58:47;;;;;;;;;;;16.80;99.90;;;;;;6154879;23;19977;-71
2021/06/25 06:01:13;;;;;;;;;;;16.90;99.90;;;;;;6154797;23;20003;-71
2021/06/25 06:03:39;;;;;;;;;;;17.00;99.90;;;;;;6154809;23;20397;-71
2021/06/25 06:06:05;;;;;;;;;;;17.20;99.90;;;;;;6181491;23;20013;-72
2021/06/25 06:08:30;;;;;;;;;;;17.30;99.90;;;;;;6181272;23;20294;-71
2021/06/25 06:10:56;;;;;;;;;;;17.50;99.90;;;;;;6181228;23;19984;-72
2021/06/25 06:13:22;;;;;;;;;;;17.70;99.90;;;;;;6181399;23;20032;-72
2021/06/25 06:15:47;;;;;;;;;;;17.90;99.90;;;;;;6181452;23;19996;-71
2021/06/25 06:18:24;;;;;;;;;;;18.00;99.90;;;;;;6154778;23;20008;-71
2021/06/25 06:20:49;;;;;;;;;;;18.10;99.90;;;;;;6181056;23;20024;-71
2021/06/25 06:31:46;;;;;;;;;;;18.50;99.90;;;;;;6183324;23;20407;-72
2021/06/25 06:34:12;;;;;;;;;;;18.60;99.90;;;;;;6183453;23;19980;-71
2021/06/25 06:36:45;;;;;;;;;;;18.70;99.90;;;;;;6156629;23;20025;-71
2021/06/25 06:39:12;;;;;;;;;;;18.70;99.90;;;;;;6156683;23;20008;-71
2021/06/25 06:41:38;;;;;;;;;;;18.90;99.90;;;;;;6182872;23;19993;-71
2021/06/25 06:44:04;;;;;;;;;;;19.00;99.90;;;;;;6182967;23;19996;-71
2021/06/25 06:46:30;;;;;;;;;;;19.00;99.90;;;;;;6183018;23;20075;-71
2021/06/25 06:48:55;;;;;;;;;;;19.00;99.90;;;;;;6183007;23;20455;-71
2021/06/25 06:51:21;;;;;;;;;;;19.10;99.90;;;;;;6182974;23;20400;-71
2021/06/25 06:53:47;;;;;;;;;;;19.10;99.90;;;;;;6183192;23;19977;-71
2021/06/25 06:56:13;;;;;;;;;;;19.10;99.90;;;;;;6182731;23;19996;-70
2021/06/25 06:58:39;;;;;;;;;;;18.90;99.90;;;;;;6183003;23;20052;-71
2021/06/25 07:01:05;;;;;;;;;;;18.90;99.90;;;;;;6183111;23;20341;-71
2021/06/25 07:03:30;;;;;;;;;;;18.80;99.90;;;;;;6182827;23;19973;-71
2021/06/25 07:05:56;;;;;;;;;;;18.70;99.90;;;;;;6182714;23;19993;-71
2021/06/25 07:08:21;;;;;;;;;;;18.70;99.90;;;;;;6182714;23;20005;-70
2021/06/25 07:10:47;;;;;;;;;;;18.70;99.90;;;;;;6182722;23;19975;-70
2021/06/25 07:13:13;;;;;;;;;;;18.70;99.90;;;;;;6182673;23;20014;-71
2021/06/25 07:15:38;;;;;;;;;;;18.80;99.90;;;;;;6182625;23;20371;-69
2021/06/25 07:18:04;;;;;;;;;;;19.00;99.90;;;;;;6156425;23;20455;-71
2021/06/25 07:20:30;;;;;;;;;;;19.10;99.90;;;;;;6182486;23;20079;-71
2021/06/25 07:22:55;;;;;;;;;;;19.10;99.90;;;;;;6156252;23;20019;-71
2021/06/25 07:25:21;;;;;;;;;;;19.10;99.90;;;;;;6182525;23;20059;-72
2021/06/25 07:27:46;;;;;;;;;;;19.10;99.90;;;;;;6156240;23;19989;-71
2021/06/25 07:30:13;;;;;;;;;;;19.20;99.90;;;;;;6182582;23;19980;-72
2021/06/25 07:32:38;;;;;;;;;;;19.30;99.90;;;;;;6156279;23;20367;-72
2021/06/25 07:35:04;;;;;;;;;;;19.30;99.90;;;;;;6182512;23;20001;-71
2021/06/25 07:37:30;;;;;;;;;;;19.40;99.90;;;;;;6156215;23;20027;-72
2021/06/25 07:39:55;;;;;;;;;;;19.40;99.90;;;;;;6156086;23;19981;-72
2021/06/25 07:42:22;;;;;;;;;;;19.40;99.90;;;;;;6155657;23;20056;-72
2021/06/25 07:44:49;;;;;;;;;;;19.40;99.90;;;;;;6182787;23;20009;-72
2021/06/25 07:47:14;;;;;;;;;;;19.50;99.90;;;;;;6182289;23;20047;-70
2021/06/25 07:49:40;;;;;;;;;;;19.60;99.90;;;;;;6182245;23;19973;-71
2021/06/25 07:52:05;;;;;;;;;;;19.70;99.90;;;;;;6156114;23;19984;-71
2021/06/25 07:54:31;;;;;;;;;;;19.70;99.90;;;;;;6182682;23;20449;-71
2021/06/25 07:56:56;;;;;;;;;;;19.80;99.90;;;;;;6155873;23;20455;-72
2021/06/25 07:59:22;;;;;;;;;;;19.90;99.90;;;;;;6155837;23;19981;-71
2021/06/25 08:01:47;;;;;;;;;;;20.00;99.90;;;;;;6155801;23;19997;-72
2021/06/25 08:04:13;;;;;;;;;;;20.20;99.90;;;;;;6182183;23;20069;-71
2021/06/25 08:06:38;;;;;;;;;;;20.20;99.90;;;;;;6182176;23;20011;-72
2021/06/25 08:09:04;;;;;;;;;;;20.40;99.90;;;;;;6182105;23;19973;-72
2021/06/25 08:11:30;;;;;;;;;;;20.60;99.90;;;;;;6182141;23;19973;-71
2021/06/25 08:13:56;;;;;;;;;;;20.80;99.50;;;;;;6182114;23;19973;-72
2021/06/25 08:16:22;;;;;;;;;;;21.10;99.90;;;;;;6182097;23;19996;-72
2021/06/25 08:18:47;;;;;;;;;;;21.30;99.80;;;;;;6182013;23;19980;-71
2021/06/25 08:21:13;;;;;;;;;;;21.40;98.80;;;;;;6155585;23;20000;-72
2021/06/25 08:23:38;;;;;;;;;;;21.50;98.40;;;;;;6155634;23;19979;-71
2021/06/25 08:26:04;;;;;;;;;;;21.60;97.60;;;;;;6181880;23;20037;-72
2021/06/25 08:28:29;;;;;;;;;;;21.80;96.40;;;;;;6181974;23;20008;-71
2021/06/25 08:30:55;;;;;;;;;;;22.10;95.40;;;;;;6182001;23;19987;-71
2021/06/25 08:33:20;;;;;;;;;;;22.20;94.40;;;;;;6181801;23;20415;-72
2021/06/25 08:35:46;;;;;;;;;;;22.50;94.80;;;;;;6181789;23;20000;-72
2021/06/25 08:38:11;;;;;;;;;;;22.90;93.60;;;;;;6181825;23;19977;-72
2021/06/25 08:40:37;;;;;;;;;;;23.00;92.40;;;;;;6181753;23;19992;-71
2021/06/25 08:43:02;;;;;;;;;;;22.90;90.80;;;;;;6155517;23;20040;-72
2021/06/25 08:45:29;;;;;;;;;;;22.90;91.70;;;;;;6155162;23;20010;-72
2021/06/25 08:47:54;;;;;;;;;;;22.80;90.10;;;;;;6155497;23;19981;-72
2021/06/25 08:50:23;;;;;;;;;;;23.10;90.10;;;;;;6181812;23;19984;-72
2021/06/25 08:52:53;;;;;;;;;;;23.30;89.00;;;;;;6181724;23;20052;-72
2021/06/25 08:55:18;;;;;;;;;;;23.60;85.30;;;;;;6155292;23;19977;-72
2021/06/25 08:57:44;;;;;;;;;;;23.70;85.30;;;;;;6181716;23;20351;-72
2021/06/25 09:00:11;;;;;;;;;;;23.70;83.70;;;;;;6155167;23;19997;-72
2021/06/25 09:02:37;;;;;;;;;;;23.70;85.00;;;;;;6181594;23;19984;-72
2021/06/25 09:05:06;;;;;;;;;;;23.30;85.40;;;;;;6155288;23;19977;-72
2021/06/25 09:07:42;;;;;;;;;;;22.90;86.20;;;;;;6181603;23;20297;-72
2021/06/25 09:10:09;;;;;;;;;;;22.60;87.80;;;;;;6155217;23;19986;-72
2021/06/25 09:12:34;;;;;;;;;;;22.00;88.20;;;;;;6182153;23;20389;-72
2021/06/25 09:15:12;;;;;;;;;;;21.70;90.40;;;;;;6155257;23;20040;-72
2021/06/25 09:17:55;;;;;;;;;;;21.40;90.40;;;;;;6181584;23;19973;-73
2021/06/25 09:20:39;;;;;;;;;;;21.10;91.80;;;;;;6155099;23;20051;-72
2021/06/25 09:23:09;;;;;;;;;;;20.90;93.40;;;;;;6181821;23;19973;-73
2021/06/25 09:25:52;;;;;;;;;;;20.70;92.50;;;;;;6181394;23;20038;-72
2021/06/25 09:28:20;;;;;;;;;;;20.70;92.60;;;;;;6155112;23;19977;-72
2021/06/25 09:30:47;;;;;;;;;;;20.60;92.40;;;;;;6181810;23;20416;-72
2021/06/25 09:33:12;;;;;;;;;;;20.70;92.00;;;;;;6181451;23;19977;-72
2021/06/25 09:35:38;;;;;;;;;;;20.70;92.90;;;;;;6181358;23;19989;-72
2021/06/25 09:38:03;;;;;;;;;;;20.80;92.30;;;;;;6155203;23;20000;-73
2021/06/25 09:40:34;;;;;;;;;;;21.10;91.80;;;;;;6181274;23;20331;-73
2021/06/25 09:43:10;;;;;;;;;;;21.50;90.90;;;;;;6155063;23;19984;-73
2021/06/25 09:48:05;;;;;;;;;;;22.10;89.10;;;;;;6181582;23;20024;-76
2021/06/25 09:50:32;;;;;;;;;;;22.80;89.60;;;;;;6155113;23;20320;-76
2021/06/25 09:52:59;;;;;;;;;;;23.70;83.20;;;;;;6155101;23;19977;-76
2021/06/25 09:55:28;;;;;;;;;;;25.10;77.20;;;;;;6184078;23;20017;-76
2021/06/25 09:58:11;;;;;;;;;;;26.70;70.70;;;;;;6154963;23;19997;-76
2021/06/25 10:03:32;;;;;;;;;;;29.50;59.90;;;;;;6181806;23;20423;-77
2021/06/25 10:06:11;;;;;;;;;;;29.50;55.60;;;;;;6182986;23;19973;-76
2021/06/25 10:08:36;;;;;;;;;;;28.90;56.10;;;;;;6157072;23;20328;-76
2021/06/25 10:11:04;;;;;;;;;;;27.90;58.50;;;;;;6156891;23;19977;-76
2021/06/25 10:13:34;;;;;;;;;;;27.20;60.20;;;;;;6156948;23;20428;-76
2021/06/25 10:16:00;;;;;;;;;;;26.30;63.30;;;;;;6156927;23;20058;-76
2021/06/25 10:18:28;;;;;;;;;;;25.50;66.60;;;;;;6183459;23;20351;-77
2021/06/25 10:20:54;;;;;;;;;;;24.90;64.90;;;;;;6156842;23;20043;-76
2021/06/25 10:23:20;;;;;;;;;;;24.50;69.10;;;;;;6183620;23;20400;-77
2021/06/25 10:25:46;;;;;;;;;;;24.30;67.40;;;;;;6157118;23;20293;-77
2021/06/25 10:28:14;;;;;;;;;;;24.20;67.60;;;;;;6156901;23;20027;-77
2021/06/25 10:30:39;;;;;;;;;;;24.50;67.40;;;;;;6183193;23;20027;-77
2021/06/25 10:33:05;;;;;;;;;;;25.50;66.40;;;;;;6183023;23;20347;-76
2021/06/25 10:35:31;;;;;;;;;;;26.70;62.00;;;;;;6157409;23;19977;-77
2021/06/25 10:37:56;;;;;;;;;;;27.20;58.80;;;;;;6161607;23;19993;-76
2021/06/25 10:40:26;;;;;;;;;;;28.00;57.00;;;;;;6156546;23;20043;-76
2021/06/25 10:42:53;;;;;;;;;;;29.60;53.40;;;;;;6156691;23;19977;-76
2021/06/25 10:45:38;;;;;;;;;;;31.10;51.70;;;;;;6156653;23;20400;-77
2021/06/25 10:48:04;;;;;;;;;;;31.60;50.10;;;;;;6182830;23;20126;-76
2021/06/25 10:50:29;;;;;;;;;;;31.60;49.00;;;;;;6183335;23;20344;-76
2021/06/25 10:53:05;;;;;;;;;;;30.40;49.10;;;;;;6182953;23;19981;-76
2021/06/25 10:55:30;;;;;;;;;;;29.10;52.60;;;;;;6156380;23;19977;-76
2021/06/25 10:57:56;;;;;;;;;;;27.60;56.20;;;;;;6156622;23;20047;-76
2021/06/25 11:00:26;;;;;;;;;;;26.50;59.20;;;;;;6156271;23;20000;-76
2021/06/25 11:02:51;;;;;;;;;;;25.80;61.70;;;;;;6156251;23;20039;-76
2021/06/25 11:05:26;;;;;;;;;;;25.10;64.80;;;;;;6182858;23;20397;-76
2021/06/25 11:08:12;;;;;;;;;;;24.40;66.80;;;;;;6156460;23;20011;-76
2021/06/25 11:10:37;;;;;;;;;;;24.10;68.70;;;;;;6135568;23;19984;-76
2021/06/25 11:13:17;;;;;;;;;;;23.90;68.90;;;;;;6156355;23;19981;-76
2021/06/25 11:15:44;;;;;;;;;;;24.30;70.30;;;;;;6155940;23;20031;-77
2021/06/25 11:18:12;;;;;;;;;;;25.80;68.80;;;;;;6156272;23;19988;-76
2021/06/25 11:20:46;;;;;;;;;;;27.80;61.30;;;;;;6182581;23;20328;-76
2021/06/25 11:23:18;;;;;;;;;;;30.10;53.70;;;;;;6183375;23;19984;-76
2021/06/25 11:26:00;;;;;;;;;;;32.70;49.50;;;;;;6182705;23;20528;-78
2021/06/25 11:28:33;;;;;;;;;;;34.50;42.90;;;;;;6182647;23;20401;-77
2021/06/25 11:30:59;;;;;;;;;;;35.20;41.00;;;;;;6156295;23;19978;-76
2021/06/25 11:33:28;;;;;;;;;;;35.90;39.40;;;;;;6182562;23;19980;-77
2021/06/25 11:35:54;;;;;;;;;;;36.50;38.40;;;;;;6156110;23;20055;-77
2021/06/25 11:38:40;;;;;;;;;;;35.10;38.00;;;;;;6156286;23;19985;-77
2021/06/25 11:41:11;;;;;;;;;;;34.00;38.30;;;;;;6181771;23;20004;-77
2021/06/25 11:43:37;;;;;;;;;;;32.60;40.30;;;;;;6182580;23;19973;-76
2021/06/25 11:46:03;;;;;;;;;;;31.50;43.00;;;;;;6155964;23;20000;-76
2021/06/25 11:48:32;;;;;;;;;;;31.50;43.20;;;;;;6156246;23;20032;-76
2021/06/25 11:50:59;;;;;;;;;;;32.90;43.50;;;;;;6155968;23;20000;-77
2021/06/25 11:53:25;;;;;;;;;;;33.60;39.30;;;;;;6182370;23;19977;-76
2021/06/25 11:55:53;;;;;;;;;;;33.10;39.70;;;;;;6182659;23;19980;-77
2021/06/25 11:58:20;;;;;;;;;;;33.00;41.30;;;;;;6155900;23;19980;-76
2021/06/25 12:00:45;;;;;;;;;;;33.80;40.20;;;;;;6182219;23;20028;-76
2021/06/25 12:03:11;;;;;;;;;;;34.60;38.60;;;;;;6155838;23;20405;-76
2021/06/25 12:05:39;;;;;;;;;;;35.50;37.00;;;;;;6155986;23;20401;-76
2021/06/25 12:08:10;;;;;;;;;;;36.60;35.20;;;;;;6156002;23;19999;-77
2021/06/25 12:10:36;;;;;;;;;;;37.40;32.60;;;;;;6183602;23;19973;-77
2021/06/25 12:13:02;;;;;;;;;;;36.90;32.80;;;;;;6182802;23;19988;-76
2021/06/25 12:15:28;;;;;;;;;;;35.90;34.70;;;;;;6156029;23;20048;-77
2021/06/25 12:17:55;;;;;;;;;;;35.70;36.50;;;;;;6183062;23;19993;-77
2021/06/25 12:20:24;;;;;;;;;;;36.10;35.00;;;;;;6183513;23;19996;-77
2021/06/25 12:22:53;;;;;;;;;;;36.60;33.90;;;;;;6184036;23;20008;-77
2021/06/25 12:25:33;;;;;;;;;;;37.30;32.50;;;;;;6183796;23;19977;-77
2021/06/25 12:28:05;;;;;;;;;;;37.60;32.60;;;;;;6183307;23;19988;-77
2021/06/25 12:30:30;;;;;;;;;;;38.10;32.50;;;;;;6156449;23;20424;-77
2021/06/25 12:33:03;;;;;;;;;;;39.30;31.60;;;;;;6183403;23;19980;-77
2021/06/25 12:35:33;;;;;;;;;;;39.40;30.20;;;;;;6183629;23;20156;-77
2021/06/25 12:37:58;;;;;;;;;;;39.50;29.90;;;;;;6182270;23;20332;-77
2021/06/25 12:40:35;;;;;;;;;;;39.80;28.70;;;;;;6182508;23;20003;-77
2021/06/25 12:43:00;;;;;;;;;;;39.00;30.20;;;;;;6182699;23;20019;-77
2021/06/25 12:45:26;;;;;;;;;;;38.20;30.90;;;;;;6182474;23;19984;-77
2021/06/25 12:47:51;;;;;;;;;;;36.20;33.40;;;;;;6155548;23;20340;-77
2021/06/25 12:50:25;;;;;;;;;;;35.70;36.80;;;;;;6156111;23;20308;-77
2021/06/25 12:52:50;;;;;;;;;;;36.40;34.50;;;;;;6155945;23;19977;-77
2021/06/25 12:55:16;;;;;;;;;;;37.50;31.30;;;;;;6182139;23;19980;-77
2021/06/25 12:57:42;;;;;;;;;;;37.60;30.60;;;;;;6182527;23;20380;-77
2021/06/25 13:00:08;;;;;;;;;;;39.40;30.80;;;;;;6156519;23;20024;-77
2021/06/25 13:02:36;;;;;;;;;;;38.80;29.90;;;;;;6156253;23;20009;-77
2021/06/25 13:05:02;;;;;;;;;;;37.60;32.30;;;;;;6155496;23;20024;-77
2021/06/25 13:07:28;;;;;;;;;;;36.20;33.00;;;;;;6155506;23;19997;-77
2021/06/25 13:09:53;;;;;;;;;;;35.60;35.30;;;;;;6182243;23;19984;-77
2021/06/25 13:12:21;;;;;;;;;;;35.70;34.60;;;;;;6181893;23;19973;-78
2021/06/25 13:14:47;;;;;;;;;;;34.80;35.20;;;;;;6181788;23;19973;-77
2021/06/25 13:17:13;;;;;;;;;;;33.60;37.90;;;;;;6155178;23;20511;-77
2021/06/25 13:19:49;;;;;;;;;;;32.10;41.60;;;;;;6182078;23;19977;-77
2021/06/25 13:22:14;;;;;;;;;;;30.70;43.80;;;;;;6181667;23;19984;-77
2021/06/25 13:24:47;;;;;;;;;;;29.90;46.20;;;;;;6155351;23;19977;-76
2021/06/25 13:27:13;;;;;;;;;;;29.10;48.00;;;;;;6130615;23;20009;-77
2021/06/25 13:30:08;;;;;;;;;;;28.70;48.40;;;;;;6155190;23;19978;-77
2021/06/25 13:32:34;;;;;;;;;;;29.20;48.50;;;;;;6130184;23;20000;-77
2021/06/25 13:35:07;;;;;;;;;;;30.70;46.00;;;;;;6181634;23;20372;-77
2021/06/25 13:37:40;;;;;;;;;;;32.10;42.80;;;;;;6181443;23;20039;-77
2021/06/25 13:40:07;;;;;;;;;;;32.00;41.50;;;;;;6181390;23;19981;-77
2021/06/25 13:42:33;;;;;;;;;;;31.60;42.50;;;;;;6181249;23;19989;-77
2021/06/25 13:45:14;;;;;;;;;;;31.00;44.40;;;;;;6181463;23;19981;-77
2021/06/25 13:47:40;;;;;;;;;;;30.40;45.90;;;;;;6154898;23;20012;-77
2021/06/25 13:50:07;;;;;;;;;;;30.00;47.40;;;;;;6181572;23;19973;-77
2021/06/25 13:52:33;;;;;;;;;;;29.70;46.90;;;;;;6155017;23;20070;-76
2021/06/25 13:55:11;;;;;;;;;;;29.10;48.30;;;;;;6181341;23;20308;-77
2021/06/25 13:57:49;;;;;;;;;;;29.30;48.90;;;;;;6155012;23;20028;-77
2021/06/25 14:00:33;;;;;;;;;;;29.60;47.30;;;;;;6181347;23;19996;-77
2021/06/25 14:03:00;;;;;;;;;;;30.00;44.20;;;;;;6181466;23;20285;-77
2021/06/25 14:05:25;;;;;;;;;;;30.10;44.80;;;;;;6181596;23;20060;-77
2021/06/25 14:07:54;;;;;;;;;;;29.70;45.30;;;;;;6181323;23;19996;-77
2021/06/25 14:10:20;;;;;;;;;;;29.70;45.90;;;;;;6155028;23;20035;-76
2021/06/25 14:12:45;;;;;;;;;;;29.90;45.30;;;;;;6181324;23;20004;-77
2021/06/25 14:15:11;;;;;;;;;;;30.00;45.90;;;;;;6155085;23;19977;-76
2021/06/25 14:17:36;;;;;;;;;;;30.20;44.50;;;;;;6181380;23;19989;-76
2021/06/25 14:20:06;;;;;;;;;;;30.10;45.60;;;;;;6154712;23;20001;-77
2021/06/25 14:22:31;;;;;;;;;;;30.40;45.50;;;;;;6181263;23;20304;-77
2021/06/25 14:24:57;;;;;;;;;;;30.10;44.80;;;;;;6155012;23;20537;-76
2021/06/25 14:27:22;;;;;;;;;;;29.90;46.50;;;;;;6181174;23;19989;-77
2021/06/25 14:29:48;;;;;;;;;;;29.50;46.50;;;;;;6154920;23;19977;-77